Oasis of the Seas — C6XS7 — position and weather

sailwx.info

Track history (hours):
 
Tides and Currents Weather Stations Pressure Air Temp Water Temp Dewpoint Dewpoint Depression Visibility Wind Speed Wind Dir Waves Ship Positions

Oasis of the Seas

Last reported at 2017-Nov-21 04:00 UTC. Time now 2017-Nov-24 22:23 UTC.
Position N 22°18' W 085°06'.

Length 360 m; draft 9.3 m.

Type: Passenger vessel. MMSI: 311020600.

Wind from 120 at 14 knots

Barometer 1014.2 mb
Air temperature 25.0 ° C
Visibility: greater than 10.8 NM
Dewpoint 21.9 ° C
Water temperature 30.0 ° C

Date/timePositionNaut miles runAvg speedWind from/ knotsBaromVisibWave heightAir tempDewpointWater temp
2017-Nov-21 04:00N 22°18' W 085°06'373 7.5 120 / 141014.210.8 25.021.930.0
2017-Nov-19 02:16N 26°11' W 079°46'621.7
2017-Nov-19 02:00N 26°05' W 079°47'1122.1
2017-Nov-19 01:30N 25°54' W 079°48'1122.0
2017-Nov-19 01:00N 25°43' W 079°48'1121.9
2017-Nov-19 00:30N 25°32' W 079°49'49420.3
2017-Nov-18 00:12N 20°35' W 086°58'420.9
2017-Nov-18 00:01N 20°31' W 086°59'3 0.2
2017-Nov-17 11:42N 20°29' W 086°59'0 2.0
2017-Nov-17 11:30N 20°29' W 086°59'5 9.4
2017-Nov-17 11:00N 20°34' W 086°58'814.3
2017-Nov-17 10:28N 20°39' W 086°52'37816.1
2017-Nov-16 11:00N 19°24' W 080°18'15215.2 020 / 23 10.8 26.622.831.1
2017-Nov-16 01:00N 18°30' W 077°48'58 4.2 020 / 101009.010.8 27.523.831.2
2017-Nov-15 11:00N 18°42' W 076°48'307 9.0 360 / 81007.910.8 25.923.030.6
2017-Nov-14 01:00N 23°06' W 074°00'352 7.1 070 / 311011.010.8 25.0 30.0
2017-Nov-11 23:20N 26°10' W 079°30'1414.4
2017-Nov-11 22:20N 25°56' W 079°35'514.7
2017-Nov-11 22:00N 25°51' W 079°36'815.0
2017-Nov-11 21:30N 25°44' W 079°37'815.0
2017-Nov-11 21:00N 25°36' W 079°37'915.0
2017-Nov-11 20:26N 25°28' W 079°36'10410.4
2017-Nov-11 10:25N 24°04' W 080°45'512.1
2017-Nov-11 10:00N 24°01' W 080°49'612.2
2017-Nov-11 09:30N 23°58' W 080°55'612.1
2017-Nov-11 09:00N 23°55' W 081°01'611.7
2017-Nov-11 08:30N 23°52' W 081°06'  
Track history (hours):
 
Tides and Currents Weather Stations Pressure Air Temp Water Temp Dewpoint Dewpoint Depression Visibility Wind Speed Wind Dir Waves Ship Positions

Oasis of the Seas

Last reported at 2017-Nov-21 04:00 UTC. Time now 2017-Nov-24 22:23 UTC.
Position N 22°18' W 085°06'.

Length 360 m; draft 9.3 m.

Type: Passenger vessel. MMSI: 311020600.

Wind from 120 at 14 knots

Barometer 1014.2 mb
Air temperature 25.0 ° C
Visibility: greater than 10.8 NM
Dewpoint 21.9 ° C
Water temperature 30.0 ° C

Date/timePositionNaut miles runAvg speedWind from/ knotsBaromVisibWave heightAir tempDewpointWater temp
2017-Nov-21 04:00N 22°18' W 085°06'373 7.5 120 / 141014.210.8 25.021.930.0
2017-Nov-19 02:16N 26°11' W 079°46'621.7
2017-Nov-19 02:00N 26°05' W 079°47'1122.1
2017-Nov-19 01:30N 25°54' W 079°48'1122.0
2017-Nov-19 01:00N 25°43' W 079°48'1121.9
2017-Nov-19 00:30N 25°32' W 079°49'49420.3
2017-Nov-18 00:12N 20°35' W 086°58'420.9
2017-Nov-18 00:01N 20°31' W 086°59'3 0.2
2017-Nov-17 11:42N 20°29' W 086°59'0 2.0
2017-Nov-17 11:30N 20°29' W 086°59'5 9.4
2017-Nov-17 11:00N 20°34' W 086°58'814.3
2017-Nov-17 10:28N 20°39' W 086°52'37816.1
2017-Nov-16 11:00N 19°24' W 080°18'15215.2 020 / 23 10.8 26.622.831.1
2017-Nov-16 01:00N 18°30' W 077°48'58 4.2 020 / 101009.010.8 27.523.831.2
2017-Nov-15 11:00N 18°42' W 076°48'307 9.0 360 / 81007.910.8 25.923.030.6
2017-Nov-14 01:00N 23°06' W 074°00'352 7.1 070 / 311011.010.8 25.0 30.0
2017-Nov-11 23:20N 26°10' W 079°30'1414.4
2017-Nov-11 22:20N 25°56' W 079°35'514.7
2017-Nov-11 22:00N 25°51' W 079°36'815.0
2017-Nov-11 21:30N 25°44' W 079°37'815.0
2017-Nov-11 21:00N 25°36' W 079°37'915.0
2017-Nov-11 20:26N 25°28' W 079°36'10410.4
2017-Nov-11 10:25N 24°04' W 080°45'512.1
2017-Nov-11 10:00N 24°01' W 080°49'612.2
2017-Nov-11 09:30N 23°58' W 080°55'612.1
2017-Nov-11 09:00N 23°55' W 081°01'611.7
2017-Nov-11 08:30N 23°52' W 081°06'  

Dump ship's entire track history